Time;durP1;ratioP1;P1;durP2;ratioP2;P2;SDS_P1;SDS_P2;PMS_P1;PMS_P2;Temp;Humidity;BMP_temperature;BMP_pressure;BME280_temperature;BME280_humidity;BME280_pressure;Samples;Min_cycle;Max_cycle;Signal;HPM_P1;HPM_P2
2022/11/26 00:01:42;;;;;;;244.73;32.90;;;4.70;1.00;;;;;;5051162;28;20238;-77
2022/11/26 00:04:09;;;;;;;236.00;30.13;;;4.70;1.00;;;;;;5050741;28;20600;-77
2022/11/26 00:06:39;;;;;;;240.03;31.97;;;4.70;1.00;;;;;;5050510;28;20197;-78
2022/11/26 00:09:12;;;;;;;226.43;30.47;;;4.70;1.00;;;;;;5051183;28;20224;-78
2022/11/26 00:11:39;;;;;;;236.50;31.00;;;4.70;1.00;;;;;;5050870;28;20181;-74
2022/11/26 00:14:13;;;;;;;228.33;30.27;;;4.70;1.00;;;;;;5050685;28;20205;-78
2022/11/26 00:16:41;;;;;;;242.10;30.83;;;4.70;1.00;;;;;;5050061;28;20185;-76
2022/11/26 00:19:08;;;;;;;229.37;30.47;;;4.70;1.00;;;;;;5050523;28;20196;-77
2022/11/26 00:21:38;;;;;;;152.27;27.53;;;4.70;1.00;;;;;;5050462;28;20196;-78
2022/11/26 00:24:07;;;;;;;169.00;27.67;;;4.70;1.00;;;;;;5050973;28;20197;-75
2022/11/26 00:26:34;;;;;;;233.67;30.90;;;4.70;1.00;;;;;;5050171;28;20351;-77
2022/11/26 00:29:01;;;;;;;218.43;30.60;;;4.80;43.30;;;;;;5050648;28;20230;-78
2022/11/26 00:31:29;;;;;;;301.43;35.20;;;4.80;34.60;;;;;;5050632;28;20294;-77
2022/11/26 00:33:56;;;;;;;270.43;33.87;;;4.80;1.00;;;;;;5050102;28;20214;-78
2022/11/26 00:36:27;;;;;;;230.27;30.97;;;4.90;1.00;;;;;;5050010;28;20189;-76
2022/11/26 00:38:58;;;;;;;325.27;35.10;;;4.90;1.00;;;;;;5050641;28;20206;-77
2022/11/26 00:41:31;;;;;;;290.13;34.47;;;4.90;1.00;;;;;;5050428;28;20230;-76
2022/11/26 00:43:58;;;;;;;255.40;34.37;;;4.90;1.00;;;;;;5050588;28;20214;-75
2022/11/26 00:46:26;;;;;;;308.93;33.80;;;4.90;1.00;;;;;;5050361;28;20201;-76
2022/11/26 00:48:54;;;;;;;313.93;34.73;;;4.90;1.00;;;;;;5050346;28;20201;-76
2022/11/26 00:51:25;;;;;;;259.70;33.30;;;4.90;1.00;;;;;;5050209;28;20261;-76
2022/11/26 00:53:55;;;;;;;276.57;33.20;;;4.90;1.00;;;;;;5050318;28;20205;-77
2022/11/26 00:56:23;;;;;;;274.17;33.00;;;4.90;1.00;;;;;;5050220;28;20273;-77
2022/11/26 00:58:50;;;;;;;275.70;34.67;;;4.80;1.00;;;;;;5050448;28;20273;-76
2022/11/26 01:01:20;;;;;;;323.53;36.40;;;4.80;1.00;;;;;;5050089;28;20245;-77
2022/11/26 01:03:47;;;;;;;309.63;33.40;;;4.80;1.00;;;;;;5050049;28;20196;-77
2022/11/26 01:06:20;;;;;;;238.10;32.43;;;4.80;1.00;;;;;;5049828;28;20197;-77
2022/11/26 01:08:48;;;;;;;314.20;35.93;;;4.80;1.00;;;;;;5050049;28;20189;-77
2022/11/26 01:11:16;;;;;;;288.00;35.87;;;4.80;1.00;;;;;;5049709;28;20193;-75
2022/11/26 01:13:44;;;;;;;304.27;35.67;;;4.80;1.00;;;;;;5050011;28;20222;-76
2022/11/26 01:16:19;;;;;;;284.10;34.73;;;4.90;1.00;;;;;;5049927;28;20250;-79
2022/11/26 01:18:47;;;;;;;271.23;33.97;;;4.80;1.00;;;;;;5050181;28;20187;-78
2022/11/26 01:21:17;;;;;;;288.40;33.67;;;4.90;1.00;;;;;;5049917;28;20204;-77
2022/11/26 01:23:44;;;;;;;252.83;31.80;;;4.90;1.00;;;;;;5049363;28;20204;-77
2022/11/26 01:26:15;;;;;;;252.90;33.47;;;4.90;1.00;;;;;;5049255;28;20319;-77
2022/11/26 01:28:42;;;;;;;254.87;34.10;;;4.80;1.00;;;;;;5049860;28;20177;-77
2022/11/26 01:31:16;;;;;;;265.23;34.53;;;4.90;1.00;;;;;;5049700;28;20253;-76
2022/11/26 01:33:43;;;;;;;221.63;31.13;;;4.90;1.00;;;;;;5049418;28;20750;-76
2022/11/26 01:36:26;;;;;;;303.83;33.83;;;4.90;1.00;;;;;;5049441;28;20719;-77
2022/11/26 01:38:54;;;;;;;219.97;31.87;;;4.90;1.00;;;;;;5049162;28;20186;-78
2022/11/26 01:41:34;;;;;;;298.57;33.90;;;4.90;1.00;;;;;;5049813;28;20224;-78
2022/11/26 01:44:02;;;;;;;259.37;32.70;;;4.90;1.00;;;;;;5029674;28;20185;-76
2022/11/26 01:46:32;;;;;;;276.30;32.77;;;5.00;1.00;;;;;;5029291;28;20251;-76
2022/11/26 01:49:16;;;;;;;252.57;32.43;;;5.00;1.00;;;;;;5029355;28;20186;-75
2022/11/26 01:51:46;;;;;;;263.67;31.37;;;5.00;1.00;;;;;;5029538;28;20240;-77
2022/11/26 01:54:13;;;;;;;237.80;32.47;;;5.00;99.90;;;;;;5029576;28;20218;-77
2022/11/26 01:56:43;;;;;;;197.40;30.07;;;5.00;99.90;;;;;;5029290;28;20682;-76
2022/11/26 01:59:17;;;;;;;166.57;28.57;;;5.10;99.90;;;;;;5029171;28;20632;-77
2022/11/26 02:01:44;;;;;;;238.70;32.20;;;5.10;99.90;;;;;;5039866;28;20638;-77
2022/11/26 02:04:16;;;;;;;275.43;34.03;;;5.10;99.90;;;;;;5049299;28;20190;-76
2022/11/26 02:06:47;;;;;;;233.17;31.57;;;5.20;99.90;;;;;;5048942;28;20177;-76
2022/11/26 02:09:15;;;;;;;161.80;28.30;;;5.20;99.90;;;;;;5048950;28;20182;-77
2022/11/26 02:11:42;;;;;;;157.37;28.20;;;5.30;99.90;;;;;;5049344;28;20239;-77
2022/11/26 02:14:13;;;;;;;217.63;30.23;;;5.30;36.20;;;;;;5048874;28;20273;-77
2022/11/26 02:17:06;;;;;;;196.37;27.47;;;5.40;1.00;;;;;;5049070;28;20308;-76
2022/11/26 02:20:15;;;;;;;185.60;28.07;;;5.30;1.00;;;;;;5049150;28;20174;-76
2022/11/26 02:23:20;;;;;;;206.33;27.33;;;5.30;1.00;;;;;;5048679;28;20189;-76
2022/11/26 02:26:15;;;;;;;187.50;28.13;;;5.30;1.00;;;;;;5059321;28;20614;-77
2022/11/26 02:29:03;;;;;;;152.63;25.53;;;5.40;1.00;;;;;;5048564;27;20726;-78
2022/11/26 02:31:36;;;;;;;118.60;26.43;;;5.30;1.00;;;;;;5049060;28;20193;-77
2022/11/26 02:34:13;;;;;;;187.47;26.70;;;5.30;1.00;;;;;;5048537;28;20611;-77
2022/11/26 02:36:46;;;;;;;155.37;27.17;;;5.30;1.00;;;;;;5048748;28;20358;-76
2022/11/26 02:39:15;;;;;;;156.20;27.00;;;5.30;1.00;;;;;;5049530;28;20182;-76
2022/11/26 02:41:44;;;;;;;149.73;26.93;;;5.30;1.00;;;;;;5052315;28;20289;-75
2022/11/26 02:44:12;;;;;;;146.67;26.73;;;5.40;1.00;;;;;;5052303;28;20203;-76
2022/11/26 02:46:41;;;;;;;147.67;27.03;;;5.30;1.00;;;;;;5051627;28;20665;-74
2022/11/26 02:49:11;;;;;;;160.33;27.30;;;5.40;1.00;;;;;;5051894;28;20222;-76
2022/11/26 02:51:39;;;;;;;149.13;26.03;;;5.40;1.00;;;;;;5052164;28;20248;-77
2022/11/26 02:54:08;;;;;;;174.87;28.37;;;5.40;1.00;;;;;;5051406;28;20225;-77
2022/11/26 02:56:36;;;;;;;167.47;27.87;;;5.50;1.00;;;;;;5052193;28;20203;-77
2022/11/26 02:59:04;;;;;;;124.93;25.87;;;5.40;1.00;;;;;;5052091;28;20195;-76
2022/11/26 03:01:36;;;;;;;157.80;26.87;;;5.40;1.00;;;;;;5051511;28;20233;-77
2022/11/26 03:04:08;;;;;;;142.60;27.10;;;5.40;1.00;;;;;;5051849;28;20233;-76
2022/11/26 03:06:35;;;;;;;140.90;26.83;;;5.40;1.00;;;;;;5051803;28;20178;-77
2022/11/26 03:09:02;;;;;;;117.03;26.13;;;5.40;1.00;;;;;;5051927;28;20203;-78
2022/11/26 03:11:29;;;;;;;149.57;27.80;;;5.40;1.00;;;;;;5051559;28;20599;-76
2022/11/26 03:13:56;;;;;;;136.90;27.53;;;5.40;1.00;;;;;;5051781;28;20288;-77
2022/11/26 03:16:23;;;;;;;123.47;26.03;;;5.40;1.00;;;;;;5051765;28;20257;-78
2022/11/26 03:18:50;;;;;;;127.23;26.27;;;5.40;1.00;;;;;;5051420;28;20241;-76
2022/11/26 03:21:18;;;;;;;139.17;27.10;;;5.40;1.00;;;;;;5051601;28;20203;-75
2022/11/26 03:23:45;;;;;;;131.70;27.93;;;5.40;1.00;;;;;;5051850;28;20245;-77
2022/11/26 03:26:12;;;;;;;116.07;26.17;;;5.40;99.90;;;;;;5051298;28;20232;-77
2022/11/26 03:28:39;;;;;;;122.30;24.83;;;5.30;99.90;;;;;;5051484;28;20189;-77
2022/11/26 03:31:06;;;;;;;228.30;29.77;;;5.30;99.90;;;;;;5051458;28;20197;-76
2022/11/26 03:33:33;;;;;;;260.13;31.80;;;5.20;99.90;;;;;;5051511;28;20214;-75
2022/11/26 03:36:00;;;;;;;199.97;31.23;;;5.20;1.00;;;;;;5051166;28;20196;-77
2022/11/26 03:38:29;;;;;;;178.93;30.30;;;5.10;1.00;;;;;;5051530;28;20542;-78
2022/11/26 03:40:57;;;;;;;172.20;28.77;;;5.10;1.00;;;;;;5051122;28;20220;-78
2022/11/26 03:43:24;;;;;;;173.43;30.90;;;5.00;1.00;;;;;;5051356;28;20200;-76
2022/11/26 03:45:51;;;;;;;131.90;28.63;;;5.00;1.00;;;;;;5051552;28;20292;-77
2022/11/26 03:48:18;;;;;;;158.83;29.10;;;5.00;1.00;;;;;;5051328;28;20221;-77
2022/11/26 03:50:45;;;;;;;149.10;29.73;;;5.00;99.90;;;;;;5050182;28;20245;-77
2022/11/26 03:53:12;;;;;;;160.00;30.00;;;5.00;99.90;;;;;;5051323;28;20269;-76
2022/11/26 03:55:41;;;;;;;135.77;28.63;;;5.00;99.90;;;;;;5051015;28;20197;-77
2022/11/26 03:58:08;;;;;;;123.87;28.77;;;5.00;99.90;;;;;;5050923;28;20193;-76
2022/11/26 04:00:35;;;;;;;142.63;27.77;;;5.00;99.90;;;;;;5050789;28;20603;-76
2022/11/26 04:03:03;;;;;;;123.23;27.77;;;5.00;99.90;;;;;;5051162;28;20197;-76
2022/11/26 04:05:29;;;;;;;153.17;29.23;;;5.00;99.90;;;;;;5051088;28;20188;-76
2022/11/26 04:07:56;;;;;;;140.97;29.23;;;5.00;99.90;;;;;;5050712;28;20197;-76
2022/11/26 04:10:24;;;;;;;191.73;30.87;;;5.00;99.90;;;;;;5050802;28;20251;-76
2022/11/26 04:12:52;;;;;;;222.87;32.53;;;5.10;99.90;;;;;;5051135;28;20243;-76
2022/11/26 04:15:19;;;;;;;282.20;35.30;;;5.00;99.90;;;;;;5051127;28;20223;-76
2022/11/26 04:17:46;;;;;;;372.83;38.73;;;5.10;99.90;;;;;;5050819;28;20595;-75
2022/11/26 04:20:13;;;;;;;321.33;36.93;;;5.10;99.90;;;;;;5050746;28;20240;-78
2022/11/26 04:22:40;;;;;;;409.60;42.07;;;5.10;99.90;;;;;;5050828;28;20651;-78
2022/11/26 04:25:08;;;;;;;465.47;43.40;;;5.00;99.90;;;;;;5050264;28;20222;-77
2022/11/26 04:27:35;;;;;;;377.80;40.23;;;5.00;99.90;;;;;;5050723;28;20178;-77
2022/11/26 04:30:04;;;;;;;445.07;43.40;;;5.00;99.90;;;;;;5050691;28;20199;-76
2022/11/26 04:32:31;;;;;;;404.67;40.60;;;5.00;99.90;;;;;;5050298;28;20241;-78
2022/11/26 04:34:58;;;;;;;452.13;44.33;;;5.00;1.00;;;;;;5050172;28;20689;-76
2022/11/26 04:37:25;;;;;;;449.07;41.20;;;5.00;99.90;;;;;;5050800;28;20257;-77
2022/11/26 04:39:52;;;;;;;400.50;41.23;;;5.00;99.90;;;;;;5050844;28;20205;-77
2022/11/26 04:42:19;;;;;;;383.47;38.43;;;5.00;1.00;;;;;;5050279;28;20202;-77
2022/11/26 04:44:46;;;;;;;328.53;37.63;;;5.00;1.00;;;;;;5050237;28;20260;-77
2022/11/26 04:47:15;;;;;;;297.80;37.67;;;5.00;1.00;;;;;;5050446;28;20197;-78
2022/11/26 04:49:42;;;;;;;269.73;36.20;;;5.00;1.00;;;;;;5050027;28;20198;-76
2022/11/26 04:52:10;;;;;;;226.33;34.00;;;5.00;1.00;;;;;;5049986;28;20537;-78
2022/11/26 04:54:37;;;;;;;252.77;35.63;;;5.00;99.90;;;;;;5050222;28;20285;-76
2022/11/26 04:57:04;;;;;;;224.53;32.10;;;5.00;99.90;;;;;;5049999;28;20197;-76
2022/11/26 04:59:31;;;;;;;203.43;33.03;;;4.90;1.00;;;;;;5049859;28;20193;-76
2022/11/26 05:01:59;;;;;;;280.87;36.03;;;5.00;1.00;;;;;;5047400;28;20249;-77
2022/11/26 05:04:28;;;;;;;273.87;35.00;;;4.90;1.00;;;;;;5049998;28;20557;-77
2022/11/26 05:06:55;;;;;;;336.97;36.37;;;4.90;1.00;;;;;;5050275;28;20201;-77
2022/11/26 05:09:22;;;;;;;366.10;36.43;;;4.90;1.00;;;;;;5050132;28;20537;-75
2022/11/26 05:11:49;;;;;;;346.47;36.13;;;4.90;1.00;;;;;;5049631;28;20678;-77
2022/11/26 05:14:16;;;;;;;313.23;34.77;;;4.90;1.00;;;;;;5049580;28;20558;-77
2022/11/26 05:16:43;;;;;;;339.33;35.30;;;4.90;1.00;;;;;;5049983;28;20202;-77
2022/11/26 05:19:10;;;;;;;314.57;32.97;;;4.90;1.00;;;;;;5049629;28;20200;-77
2022/11/26 05:21:38;;;;;;;260.67;30.70;;;4.90;1.00;;;;;;5049515;28;20731;-77
2022/11/26 05:24:06;;;;;;;247.27;32.50;;;4.80;1.00;;;;;;5049640;28;20201;-76
2022/11/26 05:26:33;;;;;;;288.53;31.97;;;4.80;1.00;;;;;;5049428;28;20241;-77
2022/11/26 05:29:00;;;;;;;299.03;32.77;;;4.80;1.00;;;;;;5049377;28;20193;-76
2022/11/26 05:31:27;;;;;;;320.37;33.20;;;4.90;1.00;;;;;;5046708;28;20197;-77
2022/11/26 05:33:54;;;;;;;317.90;33.40;;;4.80;1.00;;;;;;5049591;28;20211;-76
2022/11/26 05:36:21;;;;;;;308.43;31.90;;;4.90;1.00;;;;;;5049603;28;20200;-77
2022/11/26 05:38:50;;;;;;;343.70;32.97;;;4.90;1.00;;;;;;5049671;28;20199;-77
2022/11/26 05:41:17;;;;;;;360.67;33.47;;;4.90;1.00;;;;;;5049666;28;20202;-78
2022/11/26 05:43:44;;;;;;;328.83;32.77;;;4.90;1.00;;;;;;5049536;28;20241;-78
2022/11/26 05:46:14;;;;;;;312.73;32.87;;;4.90;1.00;;;;;;5049573;28;20201;-77
2022/11/26 05:48:42;;;;;;;261.27;30.60;;;4.90;1.00;;;;;;5049444;28;20197;-77
2022/11/26 05:51:09;;;;;;;223.77;29.70;;;4.90;1.00;;;;;;5049184;28;20189;-77
2022/11/26 05:53:36;;;;;;;325.63;33.40;;;4.90;1.00;;;;;;5049015;28;20243;-77
2022/11/26 05:56:05;;;;;;;363.13;33.67;;;5.00;1.00;;;;;;5049418;28;20198;-77
2022/11/26 05:58:32;;;;;;;360.33;33.23;;;5.10;1.00;;;;;;5049404;28;20203;-78
2022/11/26 06:00:59;;;;;;;311.17;32.33;;;5.10;99.90;;;;;;5049549;28;20248;-77
2022/11/26 06:03:26;;;;;;;309.13;32.07;;;5.20;99.90;;;;;;5049049;28;20647;-76
2022/11/26 06:05:53;;;;;;;142.37;25.03;;;5.20;99.90;;;;;;5048913;28;20615;-77
2022/11/26 06:08:20;;;;;;;301.30;30.73;;;5.30;28.60;;;;;;5049336;28;20594;-77
2022/11/26 06:10:47;;;;;;;289.60;31.40;;;5.30;1.00;;;;;;5063582;28;20208;-79
2022/11/26 06:13:16;;;;;;;286.87;30.07;;;5.30;1.00;;;;;;5029105;28;20197;-78
2022/11/26 06:15:43;;;;;;;314.40;31.17;;;5.30;1.00;;;;;;5032332;28;20687;-79
2022/11/26 06:18:10;;;;;;;289.53;30.87;;;5.30;1.00;;;;;;5032561;28;20600;-78
2022/11/26 06:20:37;;;;;;;349.00;33.17;;;5.30;1.00;;;;;;5041630;28;20245;-79
2022/11/26 06:23:04;;;;;;;394.00;32.77;;;5.30;1.00;;;;;;5052320;28;20727;-78
2022/11/26 06:25:31;;;;;;;396.23;35.70;;;5.30;1.00;;;;;;5052079;28;20270;-78
2022/11/26 06:27:58;;;;;;;297.00;31.53;;;5.30;1.00;;;;;;5052419;28;20655;-78
2022/11/26 06:30:27;;;;;;;307.77;32.47;;;5.30;1.00;;;;;;5052484;28;20202;-77
2022/11/26 06:32:54;;;;;;;144.40;26.13;;;5.30;1.00;;;;;;5052515;28;20201;-78
2022/11/26 06:35:22;;;;;;;401.50;35.80;;;5.30;1.00;;;;;;5053108;28;20266;-81
2022/11/26 06:37:49;;;;;;;339.87;33.17;;;5.40;1.00;;;;;;5075917;28;20198;-77
2022/11/26 06:40:18;;;;;;;387.70;35.00;;;5.30;1.00;;;;;;5052371;28;20199;-77
2022/11/26 06:42:48;;;;;;;387.70;35.00;;;5.30;1.00;;;;;;5052368;28;20601;-78
2022/11/26 06:45:16;;;;;;;352.50;33.03;;;5.30;1.00;;;;;;5052117;28;20213;-76
2022/11/26 06:47:46;;;;;;;435.90;36.33;;;5.40;1.00;;;;;;5052250;28;20198;-77
2022/11/26 06:50:13;;;;;;;367.63;34.97;;;5.40;1.00;;;;;;5052253;28;20182;-76
2022/11/26 06:52:40;;;;;;;291.20;30.47;;;5.40;99.90;;;;;;5052199;28;20281;-78
2022/11/26 06:55:08;;;;;;;417.20;37.13;;;5.30;99.90;;;;;;5051750;28;20218;-76
2022/11/26 06:57:35;;;;;;;344.87;36.13;;;5.40;99.90;;;;;;5052205;28;20194;-77
2022/11/26 07:00:03;;;;;;;376.70;38.80;;;5.40;99.90;;;;;;5052288;28;20216;-76
2022/11/26 07:02:30;;;;;;;410.70;38.70;;;5.40;99.90;;;;;;5051438;28;21023;-77
2022/11/26 07:04:58;;;;;;;444.60;43.53;;;5.40;1.00;;;;;;5051528;28;20189;-77
2022/11/26 07:07:25;;;;;;;533.97;64.13;;;5.40;99.90;;;;;;5051609;28;20598;-75
2022/11/26 07:09:52;;;;;;;374.20;46.80;;;5.40;99.90;;;;;;5051266;28;20195;-74
2022/11/26 07:12:19;;;;;;;478.87;43.90;;;5.40;99.90;;;;;;5051266;28;20194;-77
2022/11/26 07:14:46;;;;;;;316.63;35.70;;;5.40;1.00;;;;;;5051772;28;20218;-77
2022/11/26 07:17:13;;;;;;;450.17;40.00;;;5.40;1.00;;;;;;5051879;28;20199;-76
2022/11/26 07:19:40;;;;;;;405.67;36.37;;;5.50;1.00;;;;;;5051450;28;20248;-76
2022/11/26 07:22:08;;;;;;;306.63;34.73;;;5.50;1.00;;;;;;5051471;28;20202;-76
2022/11/26 07:24:36;;;;;;;313.83;32.70;;;5.50;1.00;;;;;;5051357;28;20201;-77
2022/11/26 07:27:03;;;;;;;339.30;33.53;;;5.50;1.00;;;;;;5051383;28;20258;-76
2022/11/26 07:29:30;;;;;;;253.37;31.23;;;5.50;1.00;;;;;;5051926;28;20203;-77
2022/11/26 07:31:57;;;;;;;205.33;27.83;;;5.50;99.90;;;;;;5051286;28;20203;-75
2022/11/26 07:34:24;;;;;;;175.43;27.83;;;5.60;99.90;;;;;;5050776;28;20284;-77
2022/11/26 07:36:51;;;;;;;186.17;27.83;;;5.60;1.00;;;;;;5051334;28;20739;-77
2022/11/26 07:39:20;;;;;;;172.73;27.53;;;5.60;1.00;;;;;;5051500;28;20195;-76
2022/11/26 07:41:47;;;;;;;163.10;27.50;;;5.60;1.00;;;;;;5049624;28;20249;-77
2022/11/26 07:44:14;;;;;;;174.77;27.50;;;5.60;99.90;;;;;;5045178;28;20189;-77
2022/11/26 07:46:41;;;;;;;192.13;27.23;;;5.60;99.90;;;;;;5050448;28;20240;-75
2022/11/26 07:49:09;;;;;;;155.97;25.77;;;5.60;99.90;;;;;;5050065;28;20295;-79
2022/11/26 07:51:38;;;;;;;171.47;26.30;;;5.50;99.90;;;;;;5050975;28;20195;-78
2022/11/26 07:54:07;;;;;;;135.83;24.57;;;5.50;99.90;;;;;;5050254;28;20207;-78
2022/11/26 07:56:36;;;;;;;116.37;23.57;;;5.50;99.90;;;;;;5053102;27;20198;-77
2022/11/26 07:59:04;;;;;;;106.57;23.23;;;5.40;99.90;;;;;;5051118;28;20190;-76
2022/11/26 08:01:31;;;;;;;106.03;22.63;;;5.40;99.90;;;;;;5051223;28;20190;-78
2022/11/26 08:03:59;;;;;;;103.77;22.23;;;5.30;1.00;;;;;;5051028;28;20194;-75
2022/11/26 08:06:28;;;;;;;90.50;22.47;;;5.30;1.00;;;;;;5050026;28;20224;-76
2022/11/26 08:08:55;;;;;;;101.83;22.13;;;5.20;1.00;;;;;;5050884;28;20192;-78
2022/11/26 08:11:24;;;;;;;99.97;22.73;;;5.20;1.00;;;;;;5051027;28;20201;-77
2022/11/26 08:13:56;;;;;;;94.60;22.63;;;5.30;1.00;;;;;;5049478;28;20197;-78
2022/11/26 08:16:23;;;;;;;110.83;23.57;;;5.40;13.50;;;;;;5047517;28;20631;-76
2022/11/26 08:18:53;;;;;;;102.90;23.37;;;5.50;1.00;;;;;;5041192;28;20198;-76
2022/11/26 08:21:20;;;;;;;99.80;23.03;;;5.60;1.00;;;;;;5049209;28;20190;-78
2022/11/26 08:23:48;;;;;;;113.23;25.00;;;5.60;1.00;;;;;;5033620;28;20194;-76
2022/11/26 08:26:16;;;;;;;102.00;22.17;;;5.70;1.00;;;;;;5056439;27;20272;-76
2022/11/26 08:28:43;;;;;;;93.37;21.77;;;5.70;1.00;;;;;;5041628;28;20193;-75
2022/11/26 08:31:13;;;;;;;88.83;21.73;;;5.80;1.00;;;;;;5048131;28;20202;-76
2022/11/26 08:33:41;;;;;;;92.30;22.23;;;5.80;99.90;;;;;;5037726;27;20228;-76
2022/11/26 08:36:09;;;;;;;85.17;22.20;;;5.90;99.90;;;;;;5049682;28;20667;-78
2022/11/26 08:38:37;;;;;;;77.03;20.17;;;5.90;99.90;;;;;;5049476;28;20198;-76
2022/11/26 08:41:06;;;;;;;90.63;21.37;;;5.90;99.90;;;;;;5049954;28;20611;-76
2022/11/26 08:43:35;;;;;;;83.40;21.93;;;6.00;99.90;;;;;;5049732;28;20230;-76
2022/11/26 08:46:02;;;;;;;72.50;21.80;;;6.10;99.90;;;;;;5041808;28;20212;-77
2022/11/26 08:48:32;;;;;;;62.63;20.07;;;6.10;82.60;;;;;;5050543;28;20189;-76
2022/11/26 08:51:00;;;;;;;60.27;19.60;;;6.10;99.90;;;;;;5049704;28;20194;-75
2022/11/26 08:53:28;;;;;;;57.23;18.17;;;6.20;99.90;;;;;;5058749;27;20557;-76
2022/11/26 08:55:59;;;;;;;60.30;19.13;;;6.20;99.90;;;;;;5104601;27;20753;-76
2022/11/26 08:58:27;;;;;;;51.90;18.33;;;6.20;99.90;;;;;;5049987;28;20179;-76
2022/11/26 09:00:54;;;;;;;56.73;18.40;;;6.30;99.90;;;;;;5049987;28;20287;-76
2022/11/26 09:03:21;;;;;;;61.73;21.73;;;6.30;97.70;;;;;;5049855;28;20192;-75
2022/11/26 09:05:49;;;;;;;111.07;42.43;;;6.30;82.70;;;;;;5049345;28;20193;-76
2022/11/26 09:08:16;;;;;;;65.03;28.57;;;6.40;16.90;;;;;;5049232;28;20243;-75
2022/11/26 09:10:52;;;;;;;69.13;27.53;;;6.40;1.00;;;;;;5049911;28;20195;-75
2022/11/26 09:13:19;;;;;;;54.07;21.37;;;6.50;1.00;;;;;;5052750;28;20209;-75
2022/11/26 09:15:46;;;;;;;50.47;20.33;;;6.60;1.00;;;;;;5049890;28;20284;-76
2022/11/26 09:18:13;;;;;;;54.47;19.73;;;6.60;1.00;;;;;;5049949;28;20268;-75
2022/11/26 09:20:40;;;;;;;51.30;22.50;;;6.70;1.00;;;;;;5046297;28;20190;-77
2022/11/26 09:23:08;;;;;;;59.97;25.87;;;6.80;1.00;;;;;;5038369;28;20200;-75
2022/11/26 09:25:38;;;;;;;61.37;21.60;;;6.90;1.00;;;;;;5029901;28;20259;-77
2022/11/26 09:28:05;;;;;;;56.67;21.60;;;7.00;1.00;;;;;;5029927;28;20285;-76
2022/11/26 09:30:32;;;;;;;62.33;21.60;;;7.00;1.00;;;;;;5047062;28;20206;-75
2022/11/26 09:32:59;;;;;;;61.70;23.93;;;7.00;1.00;;;;;;5047767;28;20193;-76
2022/11/26 09:35:27;;;;;;;69.43;23.87;;;7.00;1.00;;;;;;5038320;28;20220;-75
2022/11/26 09:37:56;;;;;;;60.07;23.87;;;7.00;1.00;;;;;;5048357;28;20200;-75
2022/11/26 09:40:39;;;;;;;73.10;25.07;;;7.10;1.00;;;;;;5038246;28;20659;-76
2022/11/26 09:43:14;;;;;;;55.23;21.00;;;7.10;1.00;;;;;;5049192;28;20200;-77
2022/11/26 09:45:45;;;;;;;59.73;21.80;;;7.20;1.00;;;;;;5049330;28;20642;-74
2022/11/26 09:48:17;;;;;;;56.17;21.87;;;7.30;99.90;;;;;;5050751;28;20196;-75
2022/11/26 09:50:47;;;;;;;56.67;22.27;;;7.30;99.90;;;;;;5048038;28;20224;-75
2022/11/26 09:53:19;;;;;;;78.83;28.07;;;7.30;99.90;;;;;;5035111;28;20193;-77
2022/11/26 09:55:50;;;;;;;80.90;28.77;;;7.40;99.90;;;;;;5051999;28;20209;-76
2022/11/26 09:58:22;;;;;;;88.87;31.37;;;7.30;99.90;;;;;;5055730;28;20195;-75
2022/11/26 10:00:51;;;;;;;87.40;30.57;;;7.40;99.90;;;;;;5048341;28;20714;-77
2022/11/26 10:03:20;;;;;;;74.83;27.40;;;7.30;99.90;;;;;;5048541;28;20200;-76
2022/11/26 10:05:55;;;;;;;60.37;27.10;;;7.30;99.90;;;;;;5052511;28;20228;-75
2022/11/26 10:08:56;;;;;;;66.17;27.93;;;7.50;99.90;;;;;;5048548;28;20203;-75
2022/11/26 10:11:35;;;;;;;56.20;22.07;;;7.60;1.00;;;;;;5045499;28;20725;-75
2022/11/26 10:14:20;;;;;;;54.43;22.27;;;7.90;99.90;;;;;;5047997;28;20237;-76
2022/11/26 10:16:57;;;;;;;67.47;32.97;;;8.00;99.90;;;;;;5090587;27;20208;-77
2022/11/26 10:19:41;;;;;;;58.93;22.83;;;8.20;99.90;;;;;;5047147;28;20186;-76
2022/11/26 10:22:19;;;;;;;59.90;24.33;;;8.40;1.00;;;;;;5042726;28;20202;-79
2022/11/26 10:24:48;;;;;;;60.17;25.83;;;8.40;1.00;;;;;;5048226;28;20190;-76
2022/11/26 10:27:19;;;;;;;63.00;25.37;;;8.40;1.00;;;;;;5047605;28;20197;-77
2022/11/26 10:29:51;;;;;;;58.47;22.93;;;8.40;1.00;;;;;;5047500;28;20193;-78
2022/11/26 10:32:26;;;;;;;63.60;25.67;;;8.30;1.00;;;;;;5042085;28;20242;-79
2022/11/26 10:34:55;;;;;;;62.27;25.03;;;8.20;1.00;;;;;;5047622;28;20191;-77
2022/11/26 10:37:24;;;;;;;67.83;24.47;;;8.00;1.00;;;;;;5046841;28;20250;-77
2022/11/26 10:39:56;;;;;;;60.87;26.00;;;7.90;1.00;;;;;;5033793;28;20196;-77
2022/11/26 10:42:25;;;;;;;62.97;25.70;;;7.80;1.00;;;;;;5052502;28;20196;-77
2022/11/26 10:44:53;;;;;;;67.47;28.57;;;7.70;1.00;;;;;;5044067;28;20196;-78
2022/11/26 10:47:26;;;;;;;74.50;30.60;;;7.70;1.00;;;;;;5046147;28;20194;-78
2022/11/26 10:49:55;;;;;;;72.33;31.50;;;7.70;84.40;;;;;;5047755;28;20216;-77
2022/11/26 10:52:26;;;;;;;66.67;27.40;;;7.80;99.90;;;;;;5047120;28;20197;-77
2022/11/26 10:55:22;;;;;;;68.23;28.87;;;8.00;21.80;;;;;;5047527;28;20583;-77
2022/11/26 10:57:53;;;;;;;67.90;29.00;;;8.10;1.00;;;;;;5034338;28;20194;-76
2022/11/26 11:00:38;;;;;;;82.20;36.97;;;8.20;1.00;;;;;;5046444;28;20194;-76
2022/11/26 11:03:16;;;;;;;115.37;62.80;;;8.20;1.00;;;;;;5050175;28;20203;-77
2022/11/26 11:05:45;;;;;;;73.83;33.13;;;8.20;1.00;;;;;;5051241;28;20199;-76
2022/11/26 11:08:27;;;;;;;93.30;37.80;;;8.20;1.00;;;;;;5050506;28;20194;-76
2022/11/26 11:10:56;;;;;;;75.90;33.83;;;8.20;1.00;;;;;;5050069;28;20190;-76
2022/11/26 11:13:40;;;;;;;73.53;31.17;;;8.20;1.00;;;;;;5050363;28;20194;-78
2022/11/26 11:16:09;;;;;;;72.67;31.50;;;8.20;1.00;;;;;;5045378;28;20234;-76
2022/11/26 11:18:37;;;;;;;75.17;32.77;;;8.30;1.00;;;;;;5054763;28;20257;-77
2022/11/26 11:21:05;;;;;;;61.87;30.23;;;8.30;1.00;;;;;;5050936;28;20197;-76
2022/11/26 11:23:35;;;;;;;58.53;26.20;;;8.40;1.00;;;;;;5051581;28;20201;-75
2022/11/26 11:26:04;;;;;;;63.00;28.47;;;8.40;1.00;;;;;;5050552;28;20283;-76
2022/11/26 11:28:36;;;;;;;63.40;27.57;;;8.30;1.00;;;;;;5051008;28;20197;-77
2022/11/26 11:31:08;;;;;;;85.00;35.50;;;8.30;1.00;;;;;;5050563;28;20200;-76
2022/11/26 11:33:35;;;;;;;60.17;26.30;;;8.30;1.00;;;;;;5050698;28;20663;-77
2022/11/26 11:36:05;;;;;;;57.73;26.67;;;8.30;1.00;;;;;;5050499;28;20619;-76
2022/11/26 11:38:44;;;;;;;56.77;27.53;;;8.30;1.00;;;;;;5050846;28;20232;-76
2022/11/26 11:41:20;;;;;;;54.53;25.63;;;8.30;1.00;;;;;;5050697;28;20185;-76
2022/11/26 11:43:49;;;;;;;62.67;27.30;;;8.30;1.00;;;;;;5040548;28;20652;-76
2022/11/26 11:46:38;;;;;;;48.43;23.20;;;8.30;1.00;;;;;;5046431;28;20255;-76
2022/11/26 11:49:21;;;;;;;44.97;21.43;;;8.40;1.00;;;;;;5051098;28;20200;-77
2022/11/26 11:52:03;;;;;;;46.37;21.03;;;8.50;1.00;;;;;;5050413;28;20750;-76
2022/11/26 11:54:41;;;;;;;47.47;22.30;;;8.50;99.90;;;;;;5050575;28;20194;-76
2022/11/26 11:57:16;;;;;;;43.47;21.43;;;8.50;99.90;;;;;;5050703;28;20549;-76
2022/11/26 12:00:10;;;;;;;41.70;19.97;;;8.40;99.90;;;;;;5050581;28;20197;-77
2022/11/26 12:02:56;;;;;;;40.53;19.93;;;8.30;99.90;;;;;;5049395;28;20185;-77
2022/11/26 12:05:55;;;;;;;40.83;20.60;;;8.30;99.90;;;;;;5049776;28;20639;-75
2022/11/26 12:08:34;;;;;;;41.27;20.50;;;8.30;99.90;;;;;;5046248;28;20202;-74
2022/11/26 12:11:16;;;;;;;49.60;25.90;;;8.20;99.90;;;;;;5048980;28;20242;-76
2022/11/26 12:13:48;;;;;;;85.17;33.70;;;8.20;99.90;;;;;;5048632;28;20241;-75
2022/11/26 12:16:18;;;;;;;47.33;22.60;;;8.10;99.90;;;;;;5049470;28;20218;-77
2022/11/26 12:18:50;;;;;;;44.80;23.50;;;8.00;99.90;;;;;;5050057;28;20243;-74
2022/11/26 12:21:25;;;;;;;52.40;24.97;;;8.00;99.90;;;;;;5049966;28;20185;-75
2022/11/26 12:23:58;;;;;;;75.57;38.40;;;8.00;99.90;;;;;;5049395;28;20196;-75
2022/11/26 12:26:29;;;;;;;52.53;24.37;;;8.00;99.90;;;;;;5049344;28;20236;-76
2022/11/26 12:29:03;;;;;;;44.00;21.53;;;7.90;99.90;;;;;;5049826;28;20233;-78
2022/11/26 12:31:37;;;;;;;44.13;21.90;;;7.90;99.90;;;;;;5049917;28;20265;-76
2022/11/26 12:34:11;;;;;;;45.80;22.50;;;7.80;99.90;;;;;;5050105;28;20198;-74
2022/11/26 12:36:48;;;;;;;45.07;22.80;;;7.80;99.90;;;;;;5049561;28;20750;-77
2022/11/26 12:39:25;;;;;;;54.80;27.37;;;7.90;1.00;;;;;;5049466;28;20214;-77
2022/11/26 12:41:57;;;;;;;53.03;25.67;;;8.00;99.90;;;;;;5049782;28;20185;-75
2022/11/26 12:44:31;;;;;;;74.40;39.67;;;8.10;99.90;;;;;;5047595;28;20197;-75
2022/11/26 12:47:10;;;;;;;50.37;27.57;;;8.10;99.90;;;;;;5036868;28;20204;-75
2022/11/26 12:49:44;;;;;;;52.10;29.63;;;8.00;99.90;;;;;;5049202;28;20290;-74
2022/11/26 12:52:28;;;;;;;42.20;22.73;;;7.90;99.90;;;;;;5037809;28;20238;-76